createdAt,value
2022-09-24T00:01:25.792Z,61.50
2022-09-24T00:04:00.178Z,61.22
2022-09-24T00:06:29.246Z,61.25
2022-09-24T00:08:57.597Z,62.11
2022-09-24T00:11:26.636Z,61.90
2022-09-24T00:13:54.356Z,61.91
2022-09-24T00:16:25.971Z,61.65
2022-09-24T00:18:53.895Z,62.32
2022-09-24T00:21:27.366Z,62.89
2022-09-24T00:23:56.812Z,61.97
2022-09-24T00:26:42.941Z,62.05
2022-09-24T00:29:12.493Z,62.06
2022-09-24T00:31:40.214Z,62.06
2022-09-24T00:34:07.918Z,61.93
2022-09-24T00:36:35.018Z,61.84
2022-09-24T00:39:02.194Z,62.26
2022-09-24T00:41:31.637Z,63.04
2022-09-24T00:43:59.138Z,63.92
2022-09-24T00:46:34.073Z,63.37
2022-09-24T00:49:04.539Z,62.98
2022-09-24T00:51:32.864Z,63.08
2022-09-24T00:54:04.117Z,63.52
2022-09-24T00:56:34.116Z,63.25
2022-09-24T00:59:04.583Z,63.39
2022-09-24T01:01:31.713Z,63.61
2022-09-24T01:03:59.646Z,63.51
2022-09-24T01:06:27.303Z,63.95
2022-09-24T01:08:55.544Z,63.84
2022-09-24T01:11:26.842Z,63.73
2022-09-24T01:14:15.680Z,63.90
2022-09-24T01:17:34.026Z,63.71
2022-09-24T01:20:23.203Z,63.97
2022-09-24T01:22:53.157Z,64.20
2022-09-24T01:25:25.313Z,64.30
2022-09-24T01:28:08.092Z,64.04
2022-09-24T01:30:38.206Z,63.54
2022-09-24T01:33:08.685Z,63.80
2022-09-24T01:35:45.302Z,63.86
2022-09-24T01:38:18.399Z,64.05
2022-09-24T01:40:46.574Z,64.62
2022-09-24T01:43:14.883Z,64.54
2022-09-24T01:45:42.427Z,64.52
2022-09-24T01:48:09.872Z,64.65
2022-09-24T01:50:50.752Z,64.25
2022-09-24T01:53:20.822Z,64.88
2022-09-24T01:55:51.115Z,65.24
2022-09-24T01:58:23.008Z,65.37
2022-09-24T02:00:53.350Z,64.99
2022-09-24T02:03:29.903Z,66.45
2022-09-24T02:06:09.769Z,65.73
2022-09-24T02:08:41.963Z,65.58
2022-09-24T02:11:14.878Z,66.01
2022-09-24T02:14:02.118Z,65.84
2022-09-24T02:16:39.293Z,65.55
2022-09-24T02:19:09.407Z,66.13
2022-09-24T02:21:37.505Z,65.38
2022-09-24T02:24:17.000Z,65.58
2022-09-24T02:26:44.288Z,65.51
2022-09-24T02:29:11.979Z,65.56
2022-09-24T02:31:41.382Z,66.40
2022-09-24T02:34:20.900Z,66.03
2022-09-24T02:36:53.521Z,66.15
2022-09-24T02:39:20.686Z,65.89
2022-09-24T02:41:49.332Z,66.14
2022-09-24T02:44:16.886Z,65.77
2022-09-24T02:46:45.224Z,66.16
2022-09-24T02:49:14.125Z,66.08
2022-09-24T02:51:42.225Z,66.50
2022-09-24T02:54:10.113Z,67.04
2022-09-24T02:56:37.293Z,66.81
2022-09-24T02:59:04.658Z,67.09
2022-09-24T03:01:32.423Z,67.28
2022-09-24T03:03:59.733Z,66.36
2022-09-24T03:06:26.898Z,66.70
2022-09-24T03:08:54.050Z,66.86
2022-09-24T03:11:21.680Z,68.01
2022-09-24T03:13:49.428Z,67.61
2022-09-24T03:16:17.722Z,67.16
2022-09-24T03:18:46.384Z,67.74
2022-09-24T03:21:15.363Z,69.27
2022-09-24T03:23:42.493Z,69.73
2022-09-24T03:26:10.083Z,69.55
2022-09-24T03:28:37.324Z,68.91
2022-09-24T03:31:04.840Z,68.47
2022-09-24T03:33:32.001Z,70.62
2022-09-24T03:36:03.510Z,70.50
2022-09-24T03:38:30.987Z,70.63
2022-09-24T03:40:58.577Z,69.78
2022-09-24T03:43:26.162Z,69.56
2022-09-24T03:45:53.403Z,69.76
2022-09-24T03:48:21.721Z,70.61
2022-09-24T03:50:49.277Z,70.17
2022-09-24T03:53:16.783Z,70.37
2022-09-24T03:55:46.751Z,70.65
2022-09-24T03:58:15.630Z,70.42
2022-09-24T04:00:42.775Z,69.46
2022-09-24T04:03:10.200Z,69.67
2022-09-24T04:05:37.701Z,69.78
2022-09-24T04:08:07.830Z,69.66
2022-09-24T04:10:34.957Z,69.63
2022-09-24T04:13:02.778Z,69.49
2022-09-24T04:15:30.061Z,70.81
2022-09-24T04:17:58.654Z,70.67
2022-09-24T04:20:27.527Z,70.79
2022-09-24T04:22:56.205Z,72.20
2022-09-24T04:25:24.448Z,71.43
2022-09-24T04:27:56.131Z,71.88
2022-09-24T04:30:24.615Z,71.87
2022-09-24T04:32:52.032Z,72.29
2022-09-24T04:35:20.193Z,71.30
2022-09-24T04:37:47.926Z,70.56
2022-09-24T04:40:16.294Z,71.26
2022-09-24T04:42:46.274Z,71.26
2022-09-24T04:45:15.130Z,71.17
2022-09-24T04:47:42.284Z,71.88
2022-09-24T04:50:11.377Z,71.25
2022-09-24T04:52:39.238Z,70.76
2022-09-24T04:55:06.935Z,70.70
2022-09-24T04:57:35.896Z,71.05
2022-09-24T05:00:07.427Z,71.90
2022-09-24T05:02:34.636Z,71.88
2022-09-24T05:05:01.845Z,71.34
2022-09-24T05:07:29.018Z,71.10
2022-09-24T05:09:56.747Z,70.69
2022-09-24T05:12:23.839Z,70.83
2022-09-24T05:14:50.899Z,71.22
2022-09-24T05:17:18.920Z,70.96
2022-09-24T05:19:46.067Z,71.14
2022-09-24T05:22:13.474Z,71.08
2022-09-24T05:24:40.588Z,71.00
2022-09-24T05:27:09.726Z,70.87
2022-09-24T05:29:41.113Z,70.85
2022-09-24T05:32:10.426Z,70.92
2022-09-24T05:34:37.525Z,70.43
2022-09-24T05:37:04.601Z,70.65
2022-09-24T05:39:34.252Z,69.98
2022-09-24T05:42:04.243Z,70.15
2022-09-24T05:44:31.866Z,69.86
2022-09-24T05:46:59.563Z,70.03
2022-09-24T05:49:26.781Z,69.83
2022-09-24T05:51:53.966Z,70.19
2022-09-24T05:54:21.381Z,71.07
2022-09-24T05:56:48.459Z,70.88
2022-09-24T05:59:15.612Z,70.63
2022-09-24T06:01:42.799Z,70.87
2022-09-24T06:04:12.026Z,70.44
2022-09-24T06:06:39.092Z,70.17
2022-09-24T06:09:08.899Z,70.44
2022-09-24T06:11:40.103Z,70.29
2022-09-24T06:14:09.019Z,70.24
2022-09-24T06:16:36.750Z,69.82
2022-09-24T06:19:03.926Z,70.01
2022-09-24T06:21:31.015Z,70.53
2022-09-24T06:23:58.090Z,70.49
2022-09-24T06:26:26.284Z,70.30
2022-09-24T06:28:53.438Z,70.86
2022-09-24T06:31:20.734Z,70.53
2022-09-24T06:33:48.020Z,70.79
2022-09-24T06:36:15.217Z,70.83
2022-09-24T06:38:42.398Z,71.14
2022-09-24T06:41:10.053Z,71.41
2022-09-24T06:43:37.421Z,71.49
2022-09-24T06:46:04.977Z,72.00
2022-09-24T06:48:32.331Z,71.96
2022-09-24T06:50:59.467Z,71.83
2022-09-24T06:53:26.724Z,71.65
2022-09-24T06:55:57.130Z,72.06
2022-09-24T06:58:24.503Z,71.89
2022-09-24T07:00:54.288Z,71.75
2022-09-24T07:03:22.367Z,71.83
2022-09-24T07:05:49.490Z,72.38
2022-09-24T07:08:17.149Z,72.21
2022-09-24T07:10:52.895Z,72.07
2022-09-24T07:13:21.309Z,72.54
2022-09-24T07:15:50.025Z,72.66
2022-09-24T07:18:17.846Z,72.75
2022-09-24T07:20:45.393Z,72.69
2022-09-24T07:23:12.953Z,73.10
2022-09-24T07:25:40.108Z,73.16
2022-09-24T07:28:09.516Z,73.29
2022-09-24T07:30:37.841Z,73.71
2022-09-24T07:33:05.396Z,73.49
2022-09-24T07:35:32.500Z,73.86
2022-09-24T07:38:05.768Z,73.77
2022-09-24T07:40:36.896Z,74.05
2022-09-24T07:43:04.093Z,73.75
2022-09-24T07:45:31.494Z,73.57
2022-09-24T07:48:03.460Z,73.54
2022-09-24T07:50:35.307Z,73.76
2022-09-24T07:53:02.375Z,73.79
2022-09-24T07:55:29.464Z,74.13
2022-09-24T07:57:57.375Z,73.75
2022-09-24T08:00:24.880Z,73.60
2022-09-24T08:02:53.766Z,73.67
2022-09-24T08:05:20.944Z,73.62
2022-09-24T08:07:55.264Z,74.67
2022-09-24T08:10:23.680Z,74.17
2022-09-24T08:12:51.105Z,73.84
2022-09-24T08:15:18.560Z,73.07
2022-09-24T08:17:45.725Z,73.15
2022-09-24T08:20:13.006Z,73.02
2022-09-24T08:22:40.147Z,73.08
2022-09-24T08:25:07.796Z,73.25
2022-09-24T08:27:37.027Z,72.77
2022-09-24T08:30:05.158Z,73.14
2022-09-24T08:32:32.254Z,73.01
2022-09-24T08:34:59.490Z,73.44
2022-09-24T08:37:28.309Z,72.73
2022-09-24T08:39:55.790Z,73.04
2022-09-24T08:42:32.669Z,72.65
2022-09-24T08:45:19.345Z,72.93
2022-09-24T08:47:50.935Z,72.56
2022-09-24T08:50:21.560Z,72.57
2022-09-24T08:53:06.511Z,72.48
2022-09-24T08:55:38.445Z,72.69
2022-09-24T08:58:27.729Z,72.18
2022-09-24T09:01:10.090Z,72.32
2022-09-24T09:03:45.540Z,72.26
2022-09-24T09:06:18.435Z,72.09
2022-09-24T09:09:12.113Z,72.07
2022-09-24T09:11:41.116Z,72.09
2022-09-24T09:14:29.157Z,71.94
2022-09-24T09:17:24.935Z,71.33
2022-09-24T09:19:57.553Z,71.08
2022-09-24T09:22:36.124Z,71.72
2022-09-24T09:25:16.605Z,71.38
2022-09-24T09:27:44.023Z,69.91
2022-09-24T09:30:14.453Z,69.58
2022-09-24T09:32:58.637Z,69.98
2022-09-24T09:35:47.510Z,70.11
2022-09-24T09:38:31.257Z,70.06
2022-09-24T09:41:35.029Z,70.23
2022-09-24T09:44:12.203Z,69.78
2022-09-24T09:46:47.669Z,69.99
2022-09-24T09:49:15.483Z,69.62
2022-09-24T09:51:43.050Z,69.29
2022-09-24T09:54:11.565Z,68.96
2022-09-24T09:56:44.450Z,68.90
2022-09-24T09:59:11.452Z,68.12
2022-09-24T10:01:43.359Z,68.09
2022-09-24T10:04:40.864Z,67.41
2022-09-24T10:07:16.431Z,66.68
2022-09-24T10:09:45.111Z,66.32
2022-09-24T10:12:22.088Z,66.12
2022-09-24T10:15:03.784Z,66.34
2022-09-24T10:17:38.969Z,66.62
2022-09-24T10:20:31.196Z,66.32
2022-09-24T10:23:01.624Z,66.53
2022-09-24T10:25:29.842Z,66.21
2022-09-24T10:28:19.297Z,66.42
2022-09-24T10:30:51.772Z,66.20
2022-09-24T10:33:19.040Z,65.43
2022-09-24T10:35:46.247Z,65.34
2022-09-24T10:38:19.797Z,65.16
2022-09-24T10:40:47.763Z,65.23
2022-09-24T10:43:20.756Z,65.26
2022-09-24T10:46:17.990Z,65.11
2022-09-24T10:49:04.434Z,63.42
2022-09-24T10:51:59.814Z,63.63
2022-09-24T10:55:06.270Z,63.76
2022-09-24T10:57:55.763Z,63.74
2022-09-24T11:00:25.017Z,62.98
2022-09-24T11:03:24.487Z,62.23
2022-09-24T11:06:06.187Z,62.19
2022-09-24T11:09:21.569Z,61.49
2022-09-24T11:12:27.836Z,60.83
2022-09-24T11:15:19.345Z,60.59
2022-09-24T11:17:57.875Z,60.65
2022-09-24T11:20:39.478Z,60.12
2022-09-24T11:23:33.386Z,60.37
2022-09-24T11:26:15.364Z,60.49
2022-09-24T11:28:57.817Z,60.38
2022-09-24T11:31:40.391Z,60.51
2022-09-24T11:34:49.233Z,59.66
2022-09-24T11:37:39.249Z,60.37
2022-09-24T11:40:23.373Z,59.31
2022-09-24T11:43:28.088Z,59.55
2022-09-24T11:46:14.038Z,58.70
2022-09-24T11:49:13.183Z,58.68
2022-09-24T11:52:08.060Z,58.81
2022-09-24T11:54:43.774Z,59.12
2022-09-24T11:57:18.412Z,59.22
2022-09-24T12:00:08.440Z,59.67
2022-09-24T12:02:42.233Z,59.14
2022-09-24T12:05:14.128Z,59.24
2022-09-24T12:08:03.209Z,58.83
2022-09-24T12:10:46.843Z,59.29
2022-09-24T12:13:15.991Z,59.46
2022-09-24T12:15:52.785Z,59.27
2022-09-24T12:18:31.463Z,59.01
2022-09-24T12:21:09.191Z,59.54
2022-09-24T12:23:44.817Z,60.02
2022-09-24T12:26:16.308Z,60.69
2022-09-24T12:29:35.590Z,61.10
2022-09-24T12:32:31.450Z,61.49
2022-09-24T12:35:18.888Z,61.54
2022-09-24T12:37:47.609Z,61.83
2022-09-24T12:40:52.308Z,62.03
2022-09-24T12:43:46.095Z,62.50
2022-09-24T12:46:40.497Z,62.66
2022-09-24T12:49:27.706Z,62.92
2022-09-24T12:52:00.768Z,62.96
2022-09-24T12:54:30.332Z,63.20
2022-09-24T12:57:25.286Z,62.98
2022-09-24T13:00:00.472Z,63.12
2022-09-24T13:02:29.939Z,63.14
2022-09-24T13:05:05.536Z,63.29
2022-09-24T13:07:36.128Z,63.37
2022-09-24T13:10:15.334Z,63.75
2022-09-24T13:12:43.399Z,63.36
2022-09-24T13:15:32.573Z,63.01
2022-09-24T13:18:04.330Z,62.37
2022-09-24T13:20:32.698Z,62.08
2022-09-24T13:23:14.787Z,62.20
2022-09-24T13:25:42.139Z,62.30
2022-09-24T13:28:37.655Z,62.38
2022-09-24T13:31:23.852Z,62.13
2022-09-24T13:33:54.987Z,61.82
2022-09-24T13:36:45.090Z,61.97
2022-09-24T13:39:28.069Z,61.45
2022-09-24T13:42:07.588Z,61.30
2022-09-24T13:44:37.487Z,60.64
2022-09-24T13:47:17.182Z,60.34
2022-09-24T13:49:47.009Z,60.68
2022-09-24T13:52:33.188Z,60.63
2022-09-24T13:55:05.980Z,61.02
2022-09-24T13:57:45.752Z,61.24
2022-09-24T14:00:16.568Z,61.34
2022-09-24T14:02:56.054Z,61.25
2022-09-24T14:05:23.382Z,61.54
2022-09-24T14:08:18.401Z,61.36
2022-09-24T14:10:51.036Z,61.52
2022-09-24T14:13:21.703Z,61.52
2022-09-24T14:16:10.033Z,61.60
2022-09-24T14:18:37.345Z,61.74
2022-09-24T14:21:26.155Z,61.86
2022-09-24T14:24:02.517Z,61.99
2022-09-24T14:26:40.972Z,62.21
2022-09-24T14:29:13.052Z,62.21
2022-09-24T14:31:51.146Z,62.19
2022-09-24T14:34:34.270Z,62.09
2022-09-24T14:37:17.369Z,62.14
2022-09-24T14:39:46.653Z,62.15
2022-09-24T14:42:21.218Z,62.21
2022-09-24T14:44:51.657Z,62.11
2022-09-24T14:47:30.404Z,62.31
2022-09-24T14:49:57.653Z,62.23
2022-09-24T14:52:32.168Z,62.32
2022-09-24T14:55:15.306Z,62.68
2022-09-24T14:57:47.574Z,62.72
2022-09-24T15:00:23.630Z,63.01
2022-09-24T15:03:13.265Z,63.06
2022-09-24T15:05:40.386Z,62.90
2022-09-24T15:08:22.493Z,63.14
2022-09-24T15:11:05.859Z,63.41
2022-09-24T15:13:37.590Z,63.63
2022-09-24T15:16:28.778Z,63.61
2022-09-24T15:19:13.848Z,63.92
2022-09-24T15:21:41.110Z,63.80
2022-09-24T15:24:08.184Z,64.25
2022-09-24T15:26:36.286Z,64.18
2022-09-24T15:29:03.843Z,64.13
2022-09-24T15:31:31.518Z,64.30
2022-09-24T15:33:58.919Z,64.41
2022-09-24T15:36:26.064Z,64.57
2022-09-24T15:38:58.513Z,64.79
2022-09-24T15:41:25.603Z,64.71
2022-09-24T15:43:56.790Z,64.79
2022-09-24T15:46:24.304Z,64.84
2022-09-24T15:48:51.509Z,64.50
2022-09-24T15:51:23.138Z,65.21
2022-09-24T15:53:50.711Z,65.42
2022-09-24T15:56:17.849Z,65.39
2022-09-24T15:58:45.217Z,65.31
2022-09-24T16:01:18.800Z,65.25
2022-09-24T16:03:46.074Z,65.60
2022-09-24T16:06:14.045Z,65.53
2022-09-24T16:08:42.325Z,65.74
2022-09-24T16:11:09.660Z,65.60
2022-09-24T16:13:36.850Z,65.70
2022-09-24T16:16:06.419Z,65.58
2022-09-24T16:18:33.777Z,65.73
2022-09-24T16:21:05.238Z,65.67
2022-09-24T16:23:32.322Z,65.84
2022-09-24T16:26:00.207Z,65.85
2022-09-24T16:28:27.796Z,65.57
2022-09-24T16:30:55.472Z,65.93
2022-09-24T16:33:22.919Z,66.49
2022-09-24T16:35:50.029Z,66.71
2022-09-24T16:38:22.563Z,66.48
2022-09-24T16:40:52.022Z,66.74
2022-09-24T16:43:19.304Z,67.33
2022-09-24T16:45:46.451Z,67.21
2022-09-24T16:48:13.854Z,67.64
2022-09-24T16:50:40.971Z,67.76
2022-09-24T16:53:08.062Z,68.04
2022-09-24T16:55:35.216Z,68.47
2022-09-24T16:58:02.275Z,68.89
2022-09-24T17:00:29.394Z,68.76
2022-09-24T17:02:56.541Z,68.59
2022-09-24T17:05:23.763Z,68.63
2022-09-24T17:07:50.865Z,68.63
2022-09-24T17:10:18.166Z,68.73
2022-09-24T17:12:49.875Z,69.02
2022-09-24T17:15:22.227Z,68.78
2022-09-24T17:17:50.754Z,69.09
2022-09-24T17:20:18.813Z,69.00
2022-09-24T17:22:48.075Z,68.99
2022-09-24T17:25:15.391Z,68.98
2022-09-24T17:27:42.512Z,69.33
2022-09-24T17:30:10.874Z,69.84
2022-09-24T17:32:37.991Z,70.28
2022-09-24T17:35:06.163Z,70.29
2022-09-24T17:37:33.814Z,70.70
2022-09-24T17:40:00.897Z,71.17
2022-09-24T17:42:28.099Z,70.01
2022-09-24T17:44:55.190Z,69.96
2022-09-24T17:47:22.268Z,69.95
2022-09-24T17:49:49.336Z,70.19
2022-09-24T17:52:16.615Z,70.17
2022-09-24T17:54:44.196Z,70.10
2022-09-24T17:57:11.338Z,71.08
2022-09-24T17:59:38.482Z,70.18
2022-09-24T18:02:06.690Z,70.37
2022-09-24T18:04:38.235Z,70.54
2022-09-24T18:07:05.469Z,71.58
2022-09-24T18:09:32.559Z,72.48
2022-09-24T18:12:04.404Z,71.45
2022-09-24T18:14:31.702Z,70.94
2022-09-24T18:16:59.866Z,70.72
2022-09-24T18:19:27.033Z,70.45
2022-09-24T18:21:56.115Z,70.66
2022-09-24T18:24:23.311Z,70.42
2022-09-24T18:26:51.853Z,70.75
2022-09-24T18:29:22.175Z,70.86
2022-09-24T18:31:51.277Z,71.06
2022-09-24T18:34:19.311Z,71.95
2022-09-24T18:36:46.740Z,71.34
2022-09-24T18:39:21.985Z,72.66
2022-09-24T18:41:52.127Z,72.42
2022-09-24T18:44:19.643Z,73.28
2022-09-24T18:46:46.931Z,72.51
2022-09-24T18:49:14.105Z,72.58
2022-09-24T18:51:41.288Z,72.50
2022-09-24T18:54:12.372Z,72.29
2022-09-24T18:56:40.198Z,71.83
2022-09-24T18:59:10.415Z,71.70
2022-09-24T19:01:38.909Z,72.14
2022-09-24T19:04:09.053Z,71.90
2022-09-24T19:06:37.598Z,71.89
2022-09-24T19:09:05.873Z,71.95
2022-09-24T19:11:34.520Z,71.50
2022-09-24T19:14:04.467Z,71.03
2022-09-24T19:16:31.602Z,71.13
2022-09-24T19:19:00.038Z,70.93
2022-09-24T19:21:27.228Z,71.68
2022-09-24T19:23:56.612Z,71.52
2022-09-24T19:26:26.467Z,71.70
2022-09-24T19:28:53.900Z,72.39
2022-09-24T19:31:32.390Z,73.02
2022-09-24T19:34:02.919Z,73.18
2022-09-24T19:36:32.624Z,72.39
2022-09-24T19:39:01.462Z,72.65
2022-09-24T19:41:29.097Z,72.93
2022-09-24T19:43:58.519Z,72.42
2022-09-24T19:46:27.158Z,72.64
2022-09-24T19:48:56.063Z,72.67
2022-09-24T19:51:30.980Z,72.42
2022-09-24T19:54:00.174Z,73.79
2022-09-24T19:56:27.665Z,75.10
2022-09-24T19:58:58.110Z,74.08
2022-09-24T20:01:30.581Z,73.97
2022-09-24T20:03:59.427Z,74.57
2022-09-24T20:06:28.793Z,75.05
2022-09-24T20:08:57.081Z,76.09
2022-09-24T20:11:25.893Z,77.22
2022-09-24T20:13:55.349Z,76.03
2022-09-24T20:16:26.044Z,76.58
2022-09-24T20:19:00.108Z,75.71
2022-09-24T20:21:29.518Z,76.53
2022-09-24T20:23:58.006Z,76.47
2022-09-24T20:26:44.939Z,77.64
2022-09-24T20:29:13.752Z,78.93
2022-09-24T20:31:42.299Z,77.76
2022-09-24T20:34:09.622Z,78.37
2022-09-24T20:36:36.756Z,79.11
2022-09-24T20:39:04.165Z,78.54
2022-09-24T20:41:31.249Z,79.33
2022-09-24T20:43:58.374Z,78.16
2022-09-24T20:46:28.533Z,77.49
2022-09-24T20:49:00.751Z,77.35
2022-09-24T20:51:29.101Z,77.71
2022-09-24T20:53:56.367Z,77.83
2022-09-24T20:56:24.912Z,77.99
2022-09-24T20:58:53.111Z,78.31
2022-09-24T21:01:24.727Z,78.33
2022-09-24T21:03:53.000Z,78.70
2022-09-24T21:06:23.494Z,78.63
2022-09-24T21:08:51.876Z,78.26
2022-09-24T21:11:21.332Z,77.79
2022-09-24T21:13:50.352Z,79.06
2022-09-24T21:16:22.598Z,78.93
2022-09-24T21:18:50.943Z,79.83
2022-09-24T21:21:21.146Z,78.89
2022-09-24T21:23:50.612Z,78.34
2022-09-24T21:26:22.665Z,78.51
2022-09-24T21:28:54.820Z,77.80
2022-09-24T21:31:24.898Z,78.84
2022-09-24T21:33:52.890Z,79.01
2022-09-24T21:36:21.915Z,79.06
2022-09-24T21:38:59.759Z,79.80
2022-09-24T21:41:29.429Z,79.37
2022-09-24T21:43:56.667Z,78.97
2022-09-24T21:46:24.698Z,78.92
2022-09-24T21:48:52.655Z,79.00
2022-09-24T21:51:23.818Z,78.97
2022-09-24T21:53:57.549Z,78.38
2022-09-24T21:56:25.002Z,78.78
2022-09-24T21:58:53.308Z,78.56
2022-09-24T22:01:28.745Z,78.87
2022-09-24T22:03:58.138Z,77.78
2022-09-24T22:06:28.982Z,77.42
2022-09-24T22:08:57.999Z,79.21
2022-09-24T22:11:28.063Z,78.89
2022-09-24T22:13:56.584Z,79.11
2022-09-24T22:16:23.699Z,79.54
2022-09-24T22:18:50.858Z,80.30
2022-09-24T22:21:17.971Z,80.86
2022-09-24T22:23:45.056Z,79.39
2022-09-24T22:26:14.556Z,79.25
2022-09-24T22:28:42.725Z,79.90
2022-09-24T22:31:13.354Z,79.94
2022-09-24T22:33:59.488Z,80.75
2022-09-24T22:36:31.167Z,79.64
2022-09-24T22:38:59.532Z,79.39
2022-09-24T22:41:30.604Z,79.47
2022-09-24T22:43:58.148Z,79.48
2022-09-24T22:46:27.104Z,79.63
2022-09-24T22:48:55.302Z,79.12
2022-09-24T22:51:23.375Z,79.77
2022-09-24T22:53:50.498Z,80.17
2022-09-24T22:56:19.508Z,79.08
2022-09-24T22:58:59.979Z,78.70
2022-09-24T23:01:30.301Z,78.66
2022-09-24T23:03:58.119Z,78.51
2022-09-24T23:06:25.324Z,78.83
2022-09-24T23:08:53.941Z,79.03
2022-09-24T23:11:24.278Z,78.51
2022-09-24T23:13:53.683Z,78.17
2022-09-24T23:16:23.845Z,77.36
2022-09-24T23:18:53.678Z,79.08
2022-09-24T23:21:22.377Z,78.72
2022-09-24T23:23:57.313Z,79.27
2022-09-24T23:26:25.785Z,77.90
2022-09-24T23:28:55.063Z,77.89
2022-09-24T23:31:28.252Z,77.60
2022-09-24T23:33:56.327Z,76.97
2022-09-24T23:36:24.422Z,77.20
2022-09-24T23:38:53.607Z,76.96
2022-09-24T23:41:21.993Z,78.12
2022-09-24T23:43:49.628Z,77.37
2022-09-24T23:46:17.579Z,76.67
2022-09-24T23:48:44.953Z,76.52
2022-09-24T23:51:12.300Z,76.82
2022-09-24T23:53:39.649Z,77.86
2022-09-24T23:56:07.334Z,80.38
2022-09-24T23:58:34.491Z,79.72
